Share

Ankara, Turkey

11:51 AM EEST on April 25, 2014 (GMT +0300)
Esenboga (LTAC) Elev 3114 ft | 40.13 °N, 33.00 °E | Change Station

Current weather conditions updated 31 minutes ago

Mostly Cloudy
Mostly Cloudy
68 °F
Feels Like 68 °F
N
5
Wind Variable Wind from NE
Sunrise 5:56 AM
Sunset 7:36 PM
Moon Waning Crescent

Today is forecast to be nearly the same temperature as yesterday. Slight chance of a thunderstorm tonight.

Pressure 29.86 in
Visibility 6.2 miles
Clouds Few 4000 ft
Mostly Cloudy 20000 ft
Dew Point 50 °F
Humidity 52%
Rainfall 0.00 in
Snow Depth Not available.
UV 5 out of 16
Pollen Not available.
Air Quality Not available.
Flu Activity Not available.
METAR LTAC 250820Z 05004KT 9999 FEW040 BKN200 20/10 Q1011 TEMPO FM1000 22012KT -TSRA

More Conditions Fewer Conditions

Pressure 29.86 in
Visibility 6.2 miles
Clouds Few 4000 ft
Mostly Cloudy 20000 ft
Dew Point 50 °F
Humidity 52%
Rainfall 0.00 in
Snow Depth Not available.
UV 5 out of 16
Pollen Not available.
Air Quality Not available.
Flu Activity Not available.
METAR LTAC 250820Z 05004KT 9999 FEW040 BKN200 20/10 Q1011 TEMPO FM1000 22012KT -TSRA

More Conditions Fewer Conditions

10-Day Weather Forecast

Almanac

Astronomy

Apr. 25, 2014 Rise Set
Actual Time 5:56 AM EEST 7:36 PM EEST
Civil Twilight 5:27 AM EEST 8:05 PM EEST
Nautical Twilight 4:52 AM EEST 8:40 PM EEST
Astronomical Twilight 4:15 AM EEST 9:17 PM EEST
Moon 3:31 AM EEST 3:36 PM EEST
Length of Visible Light 14h 38m
Length of Day
13h 40m
Tomorrow will be 2m 22s longer.
Waning Crescent, 18% of the Moon is Illuminated
Today
Waning Crescent
Apr 29
New
May 6
First Quarter
May 14
Full
May 21
Last Quarter

Yesterday's Extremes

Country Highs Country Lows

Community

  • Deer in evening light
    Deer in evening light
  • Critter
    Critter
  • Jone Runs Falls
    Jone Runs Falls
  • Easter in Shenandoah National Park
    Easter in Shenandoah National Park
  • Sunset at Apalachicola Bay, Florida
    Sunset at Apalachicola Bay, Florida

WunderPhotos

Upload Photos

1,704,874 photos uploaded!

WunderBlogs® & News

Nearby

Snow Depth

Not available.

Coastal Water Temperatures

Place Temperature
No Stations Reporting

Earthquake Activity

City Distance Mag. Time & Date
No recent earthquake activity has been reported nearby.
Minimum magnitude displayed is 2.5.

Nearby Weather Stations

There are no personal weather stations in this area.

What do you think?

We're not finished. Please let us know what you like, what you don't like, and what you are still missing.